sensor_id;sensor_type;location;lat;lon;timestamp;temperature;humidity
20915;DHT22;10617;52.032;5.298;2023-04-25T00:03:23;6.80;99.90
20915;DHT22;10617;52.032;5.298;2023-04-25T00:07:26;6.80;99.90
20915;DHT22;10617;52.032;5.298;2023-04-25T00:11:28;6.70;99.90
20915;DHT22;10617;52.032;5.298;2023-04-25T00:15:31;6.70;99.90
20915;DHT22;10617;52.032;5.298;2023-04-25T00:19:33;6.70;99.90
20915;DHT22;10617;52.032;5.298;2023-04-25T00:23:36;6.80;99.90
20915;DHT22;10617;52.032;5.298;2023-04-25T00:27:38;6.80;99.90
20915;DHT22;10617;52.032;5.298;2023-04-25T00:31:40;6.80;99.90
20915;DHT22;10617;52.032;5.298;2023-04-25T00:35:42;6.80;99.90
20915;DHT22;10617;52.032;5.298;2023-04-25T00:39:43;6.80;99.90
20915;DHT22;10617;52.032;5.298;2023-04-25T00:43:45;6.80;99.90
20915;DHT22;10617;52.032;5.298;2023-04-25T00:47:47;6.80;99.90
20915;DHT22;10617;52.032;5.298;2023-04-25T00:51:49;6.80;99.90
20915;DHT22;10617;52.032;5.298;2023-04-25T00:55:51;6.80;99.90
20915;DHT22;10617;52.032;5.298;2023-04-25T00:59:53;6.70;99.90
20915;DHT22;10617;52.032;5.298;2023-04-25T01:03:55;6.70;99.90
20915;DHT22;10617;52.032;5.298;2023-04-25T01:07:57;6.70;99.90
20915;DHT22;10617;52.032;5.298;2023-04-25T01:11:59;6.60;99.90
20915;DHT22;10617;52.032;5.298;2023-04-25T01:16:02;6.50;99.90
20915;DHT22;10617;52.032;5.298;2023-04-25T01:20:04;6.50;99.90
20915;DHT22;10617;52.032;5.298;2023-04-25T01:24:06;6.40;99.90
20915;DHT22;10617;52.032;5.298;2023-04-25T01:28:08;6.30;99.90
20915;DHT22;10617;52.032;5.298;2023-04-25T01:32:10;6.20;99.90
20915;DHT22;10617;52.032;5.298;2023-04-25T01:36:11;6.20;99.90
20915;DHT22;10617;52.032;5.298;2023-04-25T01:40:14;6.10;99.90
20915;DHT22;10617;52.032;5.298;2023-04-25T01:44:16;6.00;99.90
20915;DHT22;10617;52.032;5.298;2023-04-25T01:48:17;5.90;99.90
20915;DHT22;10617;52.032;5.298;2023-04-25T01:52:19;5.80;99.90
20915;DHT22;10617;52.032;5.298;2023-04-25T01:56:21;5.70;99.90
20915;DHT22;10617;52.032;5.298;2023-04-25T02:00:23;5.60;99.90
20915;DHT22;10617;52.032;5.298;2023-04-25T02:04:24;5.50;99.90
20915;DHT22;10617;52.032;5.298;2023-04-25T02:08:26;5.40;99.90
20915;DHT22;10617;52.032;5.298;2023-04-25T02:12:28;5.40;99.90
20915;DHT22;10617;52.032;5.298;2023-04-25T02:16:30;5.30;99.90
20915;DHT22;10617;52.032;5.298;2023-04-25T02:20:32;5.30;99.90
20915;DHT22;10617;52.032;5.298;2023-04-25T02:24:33;5.20;99.90
20915;DHT22;10617;52.032;5.298;2023-04-25T02:28:36;5.10;99.90
20915;DHT22;10617;52.032;5.298;2023-04-25T02:32:38;5.10;99.90
20915;DHT22;10617;52.032;5.298;2023-04-25T02:36:40;5.00;99.90
20915;DHT22;10617;52.032;5.298;2023-04-25T02:40:42;5.00;99.90
20915;DHT22;10617;52.032;5.298;2023-04-25T02:44:44;5.00;99.90
20915;DHT22;10617;52.032;5.298;2023-04-25T02:48:45;5.00;99.90
20915;DHT22;10617;52.032;5.298;2023-04-25T02:52:47;4.90;99.90
20915;DHT22;10617;52.032;5.298;2023-04-25T02:56:48;4.90;99.90
20915;DHT22;10617;52.032;5.298;2023-04-25T03:00:50;4.90;99.90
20915;DHT22;10617;52.032;5.298;2023-04-25T03:04:52;4.90;99.90
20915;DHT22;10617;52.032;5.298;2023-04-25T03:08:54;4.90;99.90
20915;DHT22;10617;52.032;5.298;2023-04-25T03:12:55;4.90;99.90
20915;DHT22;10617;52.032;5.298;2023-04-25T03:16:57;4.90;99.90
20915;DHT22;10617;52.032;5.298;2023-04-25T03:20:58;5.00;99.90
20915;DHT22;10617;52.032;5.298;2023-04-25T03:25:00;5.00;99.90
20915;DHT22;10617;52.032;5.298;2023-04-25T03:29:02;5.00;99.90
20915;DHT22;10617;52.032;5.298;2023-04-25T03:33:03;5.10;99.90
20915;DHT22;10617;52.032;5.298;2023-04-25T03:37:05;5.20;99.90
20915;DHT22;10617;52.032;5.298;2023-04-25T03:41:07;5.20;99.90
20915;DHT22;10617;52.032;5.298;2023-04-25T03:45:08;5.20;99.90
20915;DHT22;10617;52.032;5.298;2023-04-25T03:49:10;5.20;99.90
20915;DHT22;10617;52.032;5.298;2023-04-25T03:53:12;5.30;99.90
20915;DHT22;10617;52.032;5.298;2023-04-25T03:57:14;5.40;99.90
20915;DHT22;10617;52.032;5.298;2023-04-25T04:01:16;5.50;99.90
20915;DHT22;10617;52.032;5.298;2023-04-25T04:05:17;5.60;99.90
20915;DHT22;10617;52.032;5.298;2023-04-25T04:09:19;5.70;99.90
20915;DHT22;10617;52.032;5.298;2023-04-25T04:13:21;5.70;99.90
20915;DHT22;10617;52.032;5.298;2023-04-25T04:17:23;5.70;99.90
20915;DHT22;10617;52.032;5.298;2023-04-25T04:21:25;5.80;99.90
20915;DHT22;10617;52.032;5.298;2023-04-25T04:25:28;5.80;99.90
20915;DHT22;10617;52.032;5.298;2023-04-25T04:29:30;5.80;99.90
20915;DHT22;10617;52.032;5.298;2023-04-25T04:33:31;5.80;99.90
20915;DHT22;10617;52.032;5.298;2023-04-25T04:37:33;5.80;99.90
20915;DHT22;10617;52.032;5.298;2023-04-25T04:41:35;5.80;99.90
20915;DHT22;10617;52.032;5.298;2023-04-25T04:45:36;5.80;99.90
20915;DHT22;10617;52.032;5.298;2023-04-25T04:49:39;5.80;99.90
20915;DHT22;10617;52.032;5.298;2023-04-25T04:53:41;5.80;99.90
20915;DHT22;10617;52.032;5.298;2023-04-25T04:57:43;5.80;99.90
20915;DHT22;10617;52.032;5.298;2023-04-25T05:01:44;5.80;99.90
20915;DHT22;10617;52.032;5.298;2023-04-25T05:05:48;5.90;99.90
20915;DHT22;10617;52.032;5.298;2023-04-25T05:09:49;5.90;99.90
20915;DHT22;10617;52.032;5.298;2023-04-25T05:13:51;6.00;99.90
20915;DHT22;10617;52.032;5.298;2023-04-25T05:17:53;6.00;99.90
20915;DHT22;10617;52.032;5.298;2023-04-25T05:21:55;6.10;99.90
20915;DHT22;10617;52.032;5.298;2023-04-25T05:25:57;6.10;99.90
20915;DHT22;10617;52.032;5.298;2023-04-25T05:29:58;6.20;99.90
20915;DHT22;10617;52.032;5.298;2023-04-25T05:34:00;6.20;99.90
20915;DHT22;10617;52.032;5.298;2023-04-25T05:38:02;6.30;99.90
20915;DHT22;10617;52.032;5.298;2023-04-25T05:42:03;6.40;99.90
20915;DHT22;10617;52.032;5.298;2023-04-25T05:46:05;6.50;99.90
20915;DHT22;10617;52.032;5.298;2023-04-25T05:50:07;6.60;99.90
20915;DHT22;10617;52.032;5.298;2023-04-25T05:54:09;6.60;99.90
20915;DHT22;10617;52.032;5.298;2023-04-25T05:58:11;6.70;99.90
20915;DHT22;10617;52.032;5.298;2023-04-25T06:02:13;6.80;99.90
20915;DHT22;10617;52.032;5.298;2023-04-25T06:06:15;6.90;99.90
20915;DHT22;10617;52.032;5.298;2023-04-25T06:10:16;7.00;99.90
20915;DHT22;10617;52.032;5.298;2023-04-25T06:14:18;7.00;99.90
20915;DHT22;10617;52.032;5.298;2023-04-25T06:18:20;7.10;99.90
20915;DHT22;10617;52.032;5.298;2023-04-25T06:22:21;7.20;99.90
20915;DHT22;10617;52.032;5.298;2023-04-25T06:26:23;7.30;99.90
20915;DHT22;10617;52.032;5.298;2023-04-25T06:30:24;7.30;99.90
20915;DHT22;10617;52.032;5.298;2023-04-25T06:34:27;7.40;99.90
20915;DHT22;10617;52.032;5.298;2023-04-25T06:38:28;7.50;99.90
20915;DHT22;10617;52.032;5.298;2023-04-25T06:42:30;7.50;99.90
20915;DHT22;10617;52.032;5.298;2023-04-25T06:46:32;7.60;99.90
20915;DHT22;10617;52.032;5.298;2023-04-25T06:50:33;7.70;99.90
20915;DHT22;10617;52.032;5.298;2023-04-25T06:54:35;7.90;99.90
20915;DHT22;10617;52.032;5.298;2023-04-25T06:58:36;8.10;99.90
20915;DHT22;10617;52.032;5.298;2023-04-25T07:02:38;8.30;99.90
20915;DHT22;10617;52.032;5.298;2023-04-25T07:06:40;8.40;99.90
20915;DHT22;10617;52.032;5.298;2023-04-25T07:10:43;8.50;99.90
20915;DHT22;10617;52.032;5.298;2023-04-25T07:14:49;8.60;99.90
20915;DHT22;10617;52.032;5.298;2023-04-25T07:18:51;8.80;99.90
20915;DHT22;10617;52.032;5.298;2023-04-25T07:22:53;8.90;99.90
20915;DHT22;10617;52.032;5.298;2023-04-25T07:26:54;9.20;99.90
20915;DHT22;10617;52.032;5.298;2023-04-25T07:30:56;9.30;99.90
20915;DHT22;10617;52.032;5.298;2023-04-25T07:34:59;9.60;99.90
20915;DHT22;10617;52.032;5.298;2023-04-25T07:39:01;9.90;99.90
20915;DHT22;10617;52.032;5.298;2023-04-25T07:43:02;10.00;99.90
20915;DHT22;10617;52.032;5.298;2023-04-25T07:47:05;10.00;99.90
20915;DHT22;10617;52.032;5.298;2023-04-25T07:51:08;9.80;99.90
20915;DHT22;10617;52.032;5.298;2023-04-25T07:55:10;9.50;99.90
20915;DHT22;10617;52.032;5.298;2023-04-25T07:59:11;9.30;99.90
20915;DHT22;10617;52.032;5.298;2023-04-25T08:03:13;9.10;99.90
20915;DHT22;10617;52.032;5.298;2023-04-25T08:07:15;9.10;99.90
20915;DHT22;10617;52.032;5.298;2023-04-25T08:11:16;9.10;99.90
20915;DHT22;10617;52.032;5.298;2023-04-25T08:15:18;9.20;99.90
20915;DHT22;10617;52.032;5.298;2023-04-25T08:19:20;9.20;99.90
20915;DHT22;10617;52.032;5.298;2023-04-25T08:23:21;9.40;99.90
20915;DHT22;10617;52.032;5.298;2023-04-25T08:27:23;9.60;99.90
20915;DHT22;10617;52.032;5.298;2023-04-25T08:31:25;9.70;99.90
20915;DHT22;10617;52.032;5.298;2023-04-25T08:35:26;9.90;99.90
20915;DHT22;10617;52.032;5.298;2023-04-25T08:39:28;10.20;99.90
20915;DHT22;10617;52.032;5.298;2023-04-25T08:43:30;10.30;99.90
20915;DHT22;10617;52.032;5.298;2023-04-25T08:47:35;10.40;99.90
20915;DHT22;10617;52.032;5.298;2023-04-25T08:51:44;10.30;99.90
20915;DHT22;10617;52.032;5.298;2023-04-25T08:55:47;10.10;99.90
20915;DHT22;10617;52.032;5.298;2023-04-25T08:59:49;10.00;99.90
20915;DHT22;10617;52.032;5.298;2023-04-25T09:03:52;9.90;99.90
20915;DHT22;10617;52.032;5.298;2023-04-25T09:07:54;9.70;99.90
20915;DHT22;10617;52.032;5.298;2023-04-25T09:11:57;9.60;99.90
20915;DHT22;10617;52.032;5.298;2023-04-25T09:16:00;9.50;99.90
20915;DHT22;10617;52.032;5.298;2023-04-25T09:20:06;9.50;99.90
20915;DHT22;10617;52.032;5.298;2023-04-25T09:24:09;9.90;99.90
20915;DHT22;10617;52.032;5.298;2023-04-25T09:28:11;10.30;99.90
20915;DHT22;10617;52.032;5.298;2023-04-25T09:32:14;10.60;99.90
20915;DHT22;10617;52.032;5.298;2023-04-25T09:36:16;11.00;99.90
20915;DHT22;10617;52.032;5.298;2023-04-25T09:40:18;11.20;99.90
20915;DHT22;10617;52.032;5.298;2023-04-25T09:44:23;11.50;99.90
20915;DHT22;10617;52.032;5.298;2023-04-25T09:48:25;11.70;99.90
20915;DHT22;10617;52.032;5.298;2023-04-25T09:52:27;11.70;99.90
20915;DHT22;10617;52.032;5.298;2023-04-25T09:56:28;11.70;99.90
20915;DHT22;10617;52.032;5.298;2023-04-25T10:00:34;11.70;99.90
20915;DHT22;10617;52.032;5.298;2023-04-25T10:04:36;11.50;99.90
20915;DHT22;10617;52.032;5.298;2023-04-25T10:08:39;11.20;99.90
20915;DHT22;10617;52.032;5.298;2023-04-25T10:12:41;11.10;99.90
20915;DHT22;10617;52.032;5.298;2023-04-25T10:16:45;11.10;99.90
20915;DHT22;10617;52.032;5.298;2023-04-25T10:20:46;11.10;99.90
20915;DHT22;10617;52.032;5.298;2023-04-25T10:24:48;11.20;99.90
20915;DHT22;10617;52.032;5.298;2023-04-25T10:29:01;11.10;99.90
20915;DHT22;10617;52.032;5.298;2023-04-25T10:33:03;11.10;99.90
20915;DHT22;10617;52.032;5.298;2023-04-25T10:37:17;11.20;99.90
20915;DHT22;10617;52.032;5.298;2023-04-25T10:41:20;11.30;99.90
20915;DHT22;10617;52.032;5.298;2023-04-25T10:45:22;11.40;99.90
20915;DHT22;10617;52.032;5.298;2023-04-25T10:49:42;11.40;99.90
20915;DHT22;10617;52.032;5.298;2023-04-25T10:53:56;11.60;99.90
20915;DHT22;10617;52.032;5.298;2023-04-25T10:57:58;11.80;99.90
20915;DHT22;10617;52.032;5.298;2023-04-25T11:01:59;12.00;99.90
20915;DHT22;10617;52.032;5.298;2023-04-25T11:06:20;12.00;99.90
20915;DHT22;10617;52.032;5.298;2023-04-25T11:10:26;12.10;99.90
20915;DHT22;10617;52.032;5.298;2023-04-25T11:14:28;12.20;99.90
20915;DHT22;10617;52.032;5.298;2023-04-25T11:18:30;12.20;99.90
20915;DHT22;10617;52.032;5.298;2023-04-25T11:22:34;12.70;99.90
20915;DHT22;10617;52.032;5.298;2023-04-25T11:26:36;13.40;99.90
20915;DHT22;10617;52.032;5.298;2023-04-25T11:30:38;13.80;99.90
20915;DHT22;10617;52.032;5.298;2023-04-25T11:34:44;13.70;99.90
20915;DHT22;10617;52.032;5.298;2023-04-25T11:38:46;13.20;99.90
20915;DHT22;10617;52.032;5.298;2023-04-25T11:42:48;13.50;99.90
20915;DHT22;10617;52.032;5.298;2023-04-25T11:46:50;14.30;99.90
20915;DHT22;10617;52.032;5.298;2023-04-25T11:50:51;14.70;99.90
20915;DHT22;10617;52.032;5.298;2023-04-25T11:54:53;15.10;99.90
20915;DHT22;10617;52.032;5.298;2023-04-25T11:58:55;15.40;99.90
20915;DHT22;10617;52.032;5.298;2023-04-25T12:02:57;15.30;99.90
20915;DHT22;10617;52.032;5.298;2023-04-25T12:06:59;15.30;99.90
20915;DHT22;10617;52.032;5.298;2023-04-25T12:11:03;15.50;99.90
20915;DHT22;10617;52.032;5.298;2023-04-25T12:19:16;15.20;99.90
20915;DHT22;10617;52.032;5.298;2023-04-25T12:23:24;14.90;99.90
20915;DHT22;10617;52.032;5.298;2023-04-25T12:27:26;14.80;99.90
20915;DHT22;10617;52.032;5.298;2023-04-25T12:31:28;14.60;99.90
20915;DHT22;10617;52.032;5.298;2023-04-25T12:35:31;14.40;99.90
20915;DHT22;10617;52.032;5.298;2023-04-25T12:39:33;14.10;99.90
20915;DHT22;10617;52.032;5.298;2023-04-25T12:43:34;14.10;99.90
20915;DHT22;10617;52.032;5.298;2023-04-25T12:47:36;13.80;99.90
20915;DHT22;10617;52.032;5.298;2023-04-25T12:51:38;13.60;99.90
20915;DHT22;10617;52.032;5.298;2023-04-25T12:55:40;13.50;99.90
20915;DHT22;10617;52.032;5.298;2023-04-25T12:59:42;13.40;99.90
20915;DHT22;10617;52.032;5.298;2023-04-25T13:03:43;13.70;99.90
20915;DHT22;10617;52.032;5.298;2023-04-25T13:07:45;14.30;99.90
20915;DHT22;10617;52.032;5.298;2023-04-25T13:11:47;14.90;99.90
20915;DHT22;10617;52.032;5.298;2023-04-25T13:15:49;15.10;99.90
20915;DHT22;10617;52.032;5.298;2023-04-25T13:19:50;14.70;99.90
20915;DHT22;10617;52.032;5.298;2023-04-25T13:23:52;14.20;99.90
20915;DHT22;10617;52.032;5.298;2023-04-25T13:27:54;13.60;99.90
20915;DHT22;10617;52.032;5.298;2023-04-25T13:31:56;13.20;99.90
20915;DHT22;10617;52.032;5.298;2023-04-25T13:35:57;13.10;99.90
20915;DHT22;10617;52.032;5.298;2023-04-25T13:39:59;13.30;99.90
20915;DHT22;10617;52.032;5.298;2023-04-25T13:44:01;13.70;99.90
20915;DHT22;10617;52.032;5.298;2023-04-25T13:48:03;13.90;99.90
20915;DHT22;10617;52.032;5.298;2023-04-25T13:52:05;14.20;96.20
20915;DHT22;10617;52.032;5.298;2023-04-25T13:56:06;15.20;99.90
20915;DHT22;10617;52.032;5.298;2023-04-25T14:00:08;16.20;99.10
20915;DHT22;10617;52.032;5.298;2023-04-25T14:04:11;16.90;99.90
20915;DHT22;10617;52.032;5.298;2023-04-25T14:08:13;17.50;99.90
20915;DHT22;10617;52.032;5.298;2023-04-25T14:12:16;17.90;99.90
20915;DHT22;10617;52.032;5.298;2023-04-25T14:16:18;18.40;99.90
20915;DHT22;10617;52.032;5.298;2023-04-25T14:20:21;18.80;97.40
20915;DHT22;10617;52.032;5.298;2023-04-25T14:24:25;19.00;99.90
20915;DHT22;10617;52.032;5.298;2023-04-25T14:28:27;19.10;98.00
20915;DHT22;10617;52.032;5.298;2023-04-25T14:32:29;19.10;97.90
20915;DHT22;10617;52.032;5.298;2023-04-25T14:36:31;19.00;99.90
20915;DHT22;10617;52.032;5.298;2023-04-25T14:40:33;18.40;96.10
20915;DHT22;10617;52.032;5.298;2023-04-25T14:44:34;17.10;97.80
20915;DHT22;10617;52.032;5.298;2023-04-25T14:48:36;15.90;99.90
20915;DHT22;10617;52.032;5.298;2023-04-25T14:52:38;15.10;99.90
20915;DHT22;10617;52.032;5.298;2023-04-25T14:56:40;14.50;99.50
20915;DHT22;10617;52.032;5.298;2023-04-25T15:00:41;14.40;99.90
20915;DHT22;10617;52.032;5.298;2023-04-25T15:04:43;14.50;96.40
20915;DHT22;10617;52.032;5.298;2023-04-25T15:08:45;15.00;97.10
20915;DHT22;10617;52.032;5.298;2023-04-25T15:27:57;18.30;90.00
20915;DHT22;10617;52.032;5.298;2023-04-25T15:31:59;18.40;99.20
20915;DHT22;10617;52.032;5.298;2023-04-25T15:36:01;18.80;99.90
20915;DHT22;10617;52.032;5.298;2023-04-25T15:40:05;19.00;91.60
20915;DHT22;10617;52.032;5.298;2023-04-25T15:44:10;18.00;97.30
20915;DHT22;10617;52.032;5.298;2023-04-25T15:48:12;17.40;97.20
20915;DHT22;10617;52.032;5.298;2023-04-25T16:02:20;18.60;90.00
20915;DHT22;10617;52.032;5.298;2023-04-25T16:06:22;18.80;99.90
20915;DHT22;10617;52.032;5.298;2023-04-25T16:10:24;19.60;99.90
20915;DHT22;10617;52.032;5.298;2023-04-25T16:14:26;19.20;95.90
20915;DHT22;10617;52.032;5.298;2023-04-25T16:18:27;18.20;95.10
20915;DHT22;10617;52.032;5.298;2023-04-25T16:22:29;17.20;99.30
20915;DHT22;10617;52.032;5.298;2023-04-25T16:26:32;16.50;97.40
20915;DHT22;10617;52.032;5.298;2023-04-25T16:30:33;17.00;99.00
20915;DHT22;10617;52.032;5.298;2023-04-25T16:34:35;17.70;94.00
20915;DHT22;10617;52.032;5.298;2023-04-25T16:38:37;17.40;92.50
20915;DHT22;10617;52.032;5.298;2023-04-25T16:42:40;16.70;96.20
20915;DHT22;10617;52.032;5.298;2023-04-25T16:46:41;16.10;95.00
20915;DHT22;10617;52.032;5.298;2023-04-25T16:50:43;16.30;93.10
20915;DHT22;10617;52.032;5.298;2023-04-25T16:54:45;16.20;94.30
20915;DHT22;10617;52.032;5.298;2023-04-25T16:58:46;15.90;99.10
20915;DHT22;10617;52.032;5.298;2023-04-25T17:13:08;14.70;95.60
20915;DHT22;10617;52.032;5.298;2023-04-25T17:17:10;14.20;94.30
20915;DHT22;10617;52.032;5.298;2023-04-25T17:41:19;12.60;93.90
20915;DHT22;10617;52.032;5.298;2023-04-25T17:45:21;12.60;94.30
20915;DHT22;10617;52.032;5.298;2023-04-25T17:49:22;12.80;95.20
20915;DHT22;10617;52.032;5.298;2023-04-25T17:53:24;13.30;96.30
20915;DHT22;10617;52.032;5.298;2023-04-25T17:57:26;13.50;96.30
20915;DHT22;10617;52.032;5.298;2023-04-25T18:01:27;13.50;94.80
20915;DHT22;10617;52.032;5.298;2023-04-25T18:05:29;13.30;93.90
20915;DHT22;10617;52.032;5.298;2023-04-25T18:09:33;13.10;94.20
20915;DHT22;10617;52.032;5.298;2023-04-25T18:13:34;12.80;95.80
20915;DHT22;10617;52.032;5.298;2023-04-25T18:17:37;12.40;93.30
20915;DHT22;10617;52.032;5.298;2023-04-25T18:21:42;12.10;92.70
20915;DHT22;10617;52.032;5.298;2023-04-25T18:25:44;11.90;94.10
20915;DHT22;10617;52.032;5.298;2023-04-25T18:29:47;11.70;92.70
20915;DHT22;10617;52.032;5.298;2023-04-25T18:33:48;11.40;93.30
20915;DHT22;10617;52.032;5.298;2023-04-25T18:37:50;11.20;92.90
20915;DHT22;10617;52.032;5.298;2023-04-25T18:41:52;11.10;92.70
20915;DHT22;10617;52.032;5.298;2023-04-25T18:46:01;10.90;93.20
20915;DHT22;10617;52.032;5.298;2023-04-25T18:50:03;10.80;93.40
20915;DHT22;10617;52.032;5.298;2023-04-25T18:54:06;10.70;93.30
20915;DHT22;10617;52.032;5.298;2023-04-25T18:58:11;10.60;93.50
20915;DHT22;10617;52.032;5.298;2023-04-25T19:02:12;10.50;93.70
20915;DHT22;10617;52.032;5.298;2023-04-25T19:06:16;10.50;93.80
20915;DHT22;10617;52.032;5.298;2023-04-25T19:10:18;10.40;93.70
20915;DHT22;10617;52.032;5.298;2023-04-25T19:14:19;10.30;93.70
20915;DHT22;10617;52.032;5.298;2023-04-25T19:18:21;10.20;93.50
20915;DHT22;10617;52.032;5.298;2023-04-25T19:22:23;10.10;93.80
20915;DHT22;10617;52.032;5.298;2023-04-25T19:26:27;10.00;93.90
20915;DHT22;10617;52.032;5.298;2023-04-25T19:30:29;9.90;94.50
20915;DHT22;10617;52.032;5.298;2023-04-25T19:34:31;9.80;94.60
20915;DHT22;10617;52.032;5.298;2023-04-25T19:38:33;9.70;94.90
20915;DHT22;10617;52.032;5.298;2023-04-25T19:42:35;9.70;94.90
20915;DHT22;10617;52.032;5.298;2023-04-25T19:46:37;9.60;95.00
20915;DHT22;10617;52.032;5.298;2023-04-25T19:50:39;9.60;95.00
20915;DHT22;10617;52.032;5.298;2023-04-25T19:54:41;9.50;95.00
20915;DHT22;10617;52.032;5.298;2023-04-25T19:58:42;9.40;95.10
20915;DHT22;10617;52.032;5.298;2023-04-25T20:02:44;9.30;95.10
20915;DHT22;10617;52.032;5.298;2023-04-25T20:06:46;9.30;95.20
20915;DHT22;10617;52.032;5.298;2023-04-25T20:10:48;9.20;95.30
20915;DHT22;10617;52.032;5.298;2023-04-25T20:14:49;9.20;94.80
20915;DHT22;10617;52.032;5.298;2023-04-25T20:28:59;8.90;95.20
20915;DHT22;10617;52.032;5.298;2023-04-25T20:33:01;8.80;95.10
20915;DHT22;10617;52.032;5.298;2023-04-25T20:37:02;8.80;95.20
20915;DHT22;10617;52.032;5.298;2023-04-25T20:41:04;8.70;96.00
20915;DHT22;10617;52.032;5.298;2023-04-25T20:45:06;8.60;95.60
20915;DHT22;10617;52.032;5.298;2023-04-25T20:49:08;8.50;95.70
20915;DHT22;10617;52.032;5.298;2023-04-25T20:53:10;8.50;95.70
20915;DHT22;10617;52.032;5.298;2023-04-25T20:57:12;8.40;95.70
20915;DHT22;10617;52.032;5.298;2023-04-25T21:01:14;8.40;95.50
20915;DHT22;10617;52.032;5.298;2023-04-25T21:05:15;8.40;95.60
20915;DHT22;10617;52.032;5.298;2023-04-25T21:09:17;8.40;95.20
20915;DHT22;10617;52.032;5.298;2023-04-25T21:13:19;8.40;95.80
20915;DHT22;10617;52.032;5.298;2023-04-25T21:17:21;8.30;96.10
20915;DHT22;10617;52.032;5.298;2023-04-25T21:21:23;8.20;95.90
20915;DHT22;10617;52.032;5.298;2023-04-25T21:25:25;8.10;95.70
20915;DHT22;10617;52.032;5.298;2023-04-25T21:29:31;8.00;95.40
20915;DHT22;10617;52.032;5.298;2023-04-25T21:33:33;7.90;95.20
20915;DHT22;10617;52.032;5.298;2023-04-25T21:37:35;7.70;95.90
20915;DHT22;10617;52.032;5.298;2023-04-25T21:41:36;7.50;96.80
20915;DHT22;10617;52.032;5.298;2023-04-25T21:45:38;7.30;95.90
20915;DHT22;10617;52.032;5.298;2023-04-25T21:49:57;7.20;95.60
20915;DHT22;10617;52.032;5.298;2023-04-25T21:54:00;7.10;96.80
20915;DHT22;10617;52.032;5.298;2023-04-25T21:58:05;6.90;95.90
20915;DHT22;10617;52.032;5.298;2023-04-25T22:02:10;6.80;95.80
20915;DHT22;10617;52.032;5.298;2023-04-25T22:06:12;6.80;95.70
20915;DHT22;10617;52.032;5.298;2023-04-25T22:10:14;6.60;96.60
20915;DHT22;10617;52.032;5.298;2023-04-25T22:14:15;6.50;95.90
20915;DHT22;10617;52.032;5.298;2023-04-25T22:18:17;6.40;96.50
20915;DHT22;10617;52.032;5.298;2023-04-25T22:22:20;6.30;96.60
20915;DHT22;10617;52.032;5.298;2023-04-25T22:26:22;6.30;97.40
20915;DHT22;10617;52.032;5.298;2023-04-25T22:30:24;6.20;96.60
20915;DHT22;10617;52.032;5.298;2023-04-25T22:34:25;6.20;96.10
20915;DHT22;10617;52.032;5.298;2023-04-25T22:38:28;6.10;95.80
20915;DHT22;10617;52.032;5.298;2023-04-25T22:42:35;6.00;95.60
20915;DHT22;10617;52.032;5.298;2023-04-25T22:46:37;5.90;95.40
20915;DHT22;10617;52.032;5.298;2023-04-25T22:50:38;5.90;95.30
20915;DHT22;10617;52.032;5.298;2023-04-25T22:54:41;5.80;95.60
20915;DHT22;10617;52.032;5.298;2023-04-25T22:58:42;5.70;95.60
20915;DHT22;10617;52.032;5.298;2023-04-25T23:02:44;5.70;95.60
20915;DHT22;10617;52.032;5.298;2023-04-25T23:06:47;5.50;95.40
20915;DHT22;10617;52.032;5.298;2023-04-25T23:10:49;5.50;95.40
20915;DHT22;10617;52.032;5.298;2023-04-25T23:14:50;5.40;95.40
20915;DHT22;10617;52.032;5.298;2023-04-25T23:18:53;5.40;95.40
20915;DHT22;10617;52.032;5.298;2023-04-25T23:22:55;5.30;95.20
20915;DHT22;10617;52.032;5.298;2023-04-25T23:26:56;5.30;95.80
20915;DHT22;10617;52.032;5.298;2023-04-25T23:31:04;5.20;95.10
20915;DHT22;10617;52.032;5.298;2023-04-25T23:35:06;5.10;95.20
20915;DHT22;10617;52.032;5.298;2023-04-25T23:39:08;5.10;95.00
20915;DHT22;10617;52.032;5.298;2023-04-25T23:43:10;5.00;94.70
20915;DHT22;10617;52.032;5.298;2023-04-25T23:47:12;5.00;94.80
20915;DHT22;10617;52.032;5.298;2023-04-25T23:51:17;4.90;94.80
20915;DHT22;10617;52.032;5.298;2023-04-25T23:55:19;4.80;94.90
20915;DHT22;10617;52.032;5.298;2023-04-25T23:59:21;4.80;94.70
